Terminal Aerodrome Forecast
Issued by NWS

Home | Current Version | Previous Version | Text Only | Print | Product List | Glossary On
Versions: 1 2 3 4 5 6 7 8 9 10 11 12
000
FTUS45 KRIW 251138
TAFPNA
TAF
KPNA 251138Z 2512/2612 VRB05KT P6SM SCT080
     FM252100 12007KT P6SM VCSH SCT050 BKN080
     FM260500 11006KT P6SM SCT090
      AMD LTD TO CLD VIS AND WIND=

USA.gov is the U.S. government's official web portal to all federal, state and local government web resources and services.